Time;durP1;ratioP1;P1;durP2;ratioP2;P2;SDS_P1;SDS_P2;PMS_P1;PMS_P2;Temp;Humidity;BMP_temperature;BMP_pressure;BME280_temperature;BME280_humidity;BME280_pressure;Samples;Min_cycle;Max_cycle;Signal;HPM_P1;HPM_P2
2021/10/03 00:00:15;;;;;;;3.13;2.83;;;17.70;99.90;;;;;;5027963;28;20433;-38
2021/10/03 00:02:42;;;;;;;3.10;2.80;;;17.70;99.90;;;;;;5019115;28;20426;-39
2021/10/03 00:05:11;;;;;;;3.40;3.10;;;17.70;99.90;;;;;;5027497;28;20424;-38
2021/10/03 00:07:41;;;;;;;3.00;2.70;;;17.70;99.90;;;;;;5028003;28;20528;-40
2021/10/03 00:10:08;;;;;;;3.60;2.93;;;17.70;99.90;;;;;;5027730;28;20500;-39
2021/10/03 00:12:34;;;;;;;3.80;2.93;;;17.70;99.90;;;;;;5027712;28;20428;-39
2021/10/03 00:15:00;;;;;;;3.03;2.73;;;17.70;99.90;;;;;;5027156;28;20500;-38
2021/10/03 00:17:25;;;;;;;3.70;2.80;;;17.70;99.90;;;;;;5017051;28;20473;-38
2021/10/03 00:19:51;;;;;;;3.80;3.10;;;17.70;99.90;;;;;;5029124;28;20241;-38
2021/10/03 00:22:17;;;;;;;3.40;2.93;;;17.70;99.90;;;;;;5036959;28;20197;-38
2021/10/03 00:24:42;;;;;;;3.57;3.27;;;17.70;99.90;;;;;;5044483;28;20202;-39
2021/10/03 00:27:08;;;;;;;4.10;3.00;;;17.70;99.90;;;;;;5047502;28;20639;-39
2021/10/03 00:29:34;;;;;;;3.47;3.17;;;17.70;99.90;;;;;;5047144;28;20536;-38
2021/10/03 00:32:03;;;;;;;4.40;3.13;;;17.60;99.90;;;;;;5027131;28;20195;-40
2021/10/03 00:34:29;;;;;;;6.20;3.47;;;17.60;99.90;;;;;;5024868;28;20425;-38
2021/10/03 00:36:55;;;;;;;3.87;3.20;;;17.50;99.90;;;;;;5027239;28;20431;-39
2021/10/03 00:39:20;;;;;;;3.03;2.50;;;17.50;99.90;;;;;;5026997;28;20844;-39
2021/10/03 00:41:46;;;;;;;3.60;3.00;;;17.50;99.90;;;;;;5027268;28;20214;-39
2021/10/03 00:44:13;;;;;;;3.30;3.00;;;17.50;99.90;;;;;;5026390;28;20186;-38
2021/10/03 00:46:39;;;;;;;5.23;3.13;;;17.40;99.90;;;;;;5020302;28;20476;-38
2021/10/03 00:49:05;;;;;;;3.83;3.43;;;17.40;99.90;;;;;;5021935;28;20492;-39
2021/10/03 00:51:31;;;;;;;4.53;3.70;;;17.30;99.90;;;;;;5026697;28;20425;-40
2021/10/03 00:53:57;;;;;;;3.43;2.87;;;17.20;99.90;;;;;;5026420;28;20440;-38
2021/10/03 00:56:23;;;;;;;5.10;3.63;;;17.20;99.90;;;;;;5026617;28;20448;-38
2021/10/03 00:58:48;;;;;;;4.30;3.17;;;17.20;99.90;;;;;;5025541;28;20218;-39
2021/10/03 01:01:15;;;;;;;6.37;3.70;;;17.10;99.90;;;;;;5023828;28;20807;-39
2021/10/03 01:03:42;;;;;;;3.90;3.57;;;17.10;99.90;;;;;;5021608;28;20210;-39
2021/10/03 01:06:08;;;;;;;6.70;3.93;;;17.00;99.90;;;;;;5026482;28;20562;-38
2021/10/03 01:08:35;;;;;;;3.93;3.43;;;17.00;99.90;;;;;;5026714;28;20717;-39
2021/10/03 01:11:01;;;;;;;6.40;3.50;;;16.90;99.90;;;;;;5026630;28;20186;-38
2021/10/03 01:13:27;;;;;;;3.70;3.30;;;16.90;99.90;;;;;;5025739;28;20436;-38
2021/10/03 01:15:54;;;;;;;4.00;3.60;;;16.90;99.90;;;;;;5026842;28;20935;-40
2021/10/03 01:18:20;;;;;;;4.20;3.00;;;16.90;99.90;;;;;;5018885;28;20731;-38
2021/10/03 01:20:47;;;;;;;3.40;3.00;;;16.80;99.90;;;;;;5032315;28;20432;-38
2021/10/03 01:23:14;;;;;;;3.73;3.37;;;16.80;99.90;;;;;;5040862;28;20447;-39
2021/10/03 01:25:46;;;;;;;3.90;3.30;;;16.70;99.90;;;;;;5037595;28;20421;-39
2021/10/03 01:28:13;;;;;;;3.13;2.83;;;16.80;99.90;;;;;;5043156;28;20428;-39
2021/10/03 01:30:42;;;;;;;4.50;3.37;;;16.70;99.90;;;;;;5046062;28;20451;-38
2021/10/03 01:33:08;;;;;;;3.70;3.40;;;16.70;99.90;;;;;;5017703;28;20820;-38
2021/10/03 01:35:34;;;;;;;2.73;2.53;;;16.70;99.90;;;;;;5025908;28;20486;-39
2021/10/03 01:38:00;;;;;;;3.07;2.80;;;16.70;99.90;;;;;;5025900;28;20252;-39
2021/10/03 01:40:25;;;;;;;5.73;5.00;;;16.70;99.90;;;;;;5024970;28;20864;-38
2021/10/03 01:42:52;;;;;;;4.70;3.07;;;16.70;99.90;;;;;;5025379;28;20194;-38
2021/10/03 01:45:20;;;;;;;4.60;3.23;;;16.70;99.90;;;;;;5025345;28;20348;-39
2021/10/03 01:48:05;;;;;;;3.80;3.27;;;16.70;99.90;;;;;;5012722;28;20584;-39
2021/10/03 01:50:33;;;;;;;3.03;2.73;;;16.80;99.90;;;;;;5024894;28;20429;-38
2021/10/03 01:52:59;;;;;;;4.70;2.90;;;16.70;99.90;;;;;;5025051;28;20442;-38
2021/10/03 01:55:25;;;;;;;3.50;3.00;;;16.80;99.90;;;;;;5025850;28;20474;-38
2021/10/03 01:57:51;;;;;;;3.20;2.87;;;16.80;99.90;;;;;;5025293;28;20249;-39
2021/10/03 02:00:16;;;;;;;3.50;2.80;;;16.80;99.90;;;;;;5026217;28;20456;-38
2021/10/03 02:02:45;;;;;;;2.63;2.40;;;16.80;99.90;;;;;;5020042;28;20233;-41
2021/10/03 02:05:11;;;;;;;2.80;2.40;;;16.90;99.90;;;;;;5022072;28;20285;-38
2021/10/03 02:07:36;;;;;;;3.83;2.87;;;16.90;99.90;;;;;;5026121;28;20512;-39
2021/10/03 02:10:04;;;;;;;3.27;2.40;;;16.90;99.90;;;;;;5025640;28;20440;-39
2021/10/03 02:12:29;;;;;;;3.30;2.53;;;17.00;99.90;;;;;;5025762;28;20304;-39
2021/10/03 02:14:55;;;;;;;3.40;2.40;;;16.90;99.90;;;;;;5025247;28;20517;-42
2021/10/03 02:17:21;;;;;;;2.83;2.53;;;16.90;99.90;;;;;;5019504;28;20194;-40
2021/10/03 02:19:46;;;;;;;3.40;2.70;;;16.90;99.90;;;;;;5021620;28;20260;-39
2021/10/03 02:22:12;;;;;;;2.50;2.30;;;17.00;99.90;;;;;;5029288;28;20403;-39
2021/10/03 02:24:38;;;;;;;3.50;2.70;;;17.00;99.90;;;;;;5024988;28;20289;-39
2021/10/03 02:27:04;;;;;;;2.90;2.60;;;17.00;99.90;;;;;;5025481;28;20198;-39
2021/10/03 02:29:29;;;;;;;4.10;3.13;;;17.00;99.90;;;;;;5025871;28;20205;-38
2021/10/03 02:31:55;;;;;;;2.43;2.20;;;17.00;99.90;;;;;;5022265;28;20696;-38
2021/10/03 02:34:22;;;;;;;3.23;2.40;;;17.00;99.90;;;;;;5015669;28;20281;-41
2021/10/03 02:36:48;;;;;;;2.93;2.03;;;17.00;99.90;;;;;;5025186;28;20194;-39
2021/10/03 02:39:15;;;;;;;4.00;2.77;;;17.00;99.90;;;;;;5025376;28;20453;-38
2021/10/03 02:41:41;;;;;;;4.90;2.70;;;17.00;99.90;;;;;;5025097;28;20429;-38
2021/10/03 02:44:08;;;;;;;2.73;2.53;;;17.00;99.90;;;;;;5024965;28;20417;-38
2021/10/03 02:46:35;;;;;;;2.97;2.60;;;17.00;99.90;;;;;;5024051;28;20476;-39
2021/10/03 02:49:02;;;;;;;4.10;2.50;;;16.90;99.90;;;;;;5014015;28;20433;-38
2021/10/03 02:51:29;;;;;;;2.53;2.13;;;16.90;99.90;;;;;;5025190;28;20428;-41
2021/10/03 02:53:56;;;;;;;4.60;2.93;;;16.90;99.90;;;;;;5024522;28;20417;-38
2021/10/03 02:56:25;;;;;;;2.50;2.00;;;16.90;99.90;;;;;;5025627;28;20448;-38
2021/10/03 02:58:52;;;;;;;4.03;2.40;;;17.00;99.90;;;;;;5029319;28;20895;-40
2021/10/03 03:01:18;;;;;;;2.73;2.30;;;17.00;99.90;;;;;;5029234;28;20417;-39
2021/10/03 03:03:44;;;;;;;2.83;2.33;;;17.00;99.90;;;;;;5018074;28;20432;-40
2021/10/03 03:06:10;;;;;;;3.10;2.80;;;17.00;99.90;;;;;;5028944;28;20413;-40
2021/10/03 03:08:37;;;;;;;4.60;2.47;;;17.00;99.90;;;;;;5028740;28;20706;-39
2021/10/03 03:11:03;;;;;;;2.90;2.60;;;17.00;99.90;;;;;;5028947;28;20421;-38
2021/10/03 03:13:29;;;;;;;3.10;2.87;;;17.00;99.90;;;;;;5028142;28;20432;-38
2021/10/03 03:15:56;;;;;;;2.67;2.47;;;17.00;99.90;;;;;;5028800;28;20579;-38
2021/10/03 03:18:22;;;;;;;3.33;3.03;;;17.00;99.90;;;;;;5020844;28;20472;-38
2021/10/03 03:20:47;;;;;;;3.63;2.83;;;16.90;99.90;;;;;;5032648;28;20431;-38
2021/10/03 03:23:13;;;;;;;3.50;3.20;;;16.90;99.90;;;;;;5027732;28;20202;-38
2021/10/03 03:25:39;;;;;;;3.50;2.90;;;16.90;99.90;;;;;;5028422;28;20221;-38
2021/10/03 03:28:09;;;;;;;3.57;3.27;;;16.90;99.90;;;;;;5028501;28;20190;-38
2021/10/03 03:30:36;;;;;;;5.20;3.10;;;16.90;99.90;;;;;;5028764;28;20190;-40
2021/10/03 03:33:02;;;;;;;3.27;3.07;;;16.80;99.90;;;;;;5021889;28;20444;-38
2021/10/03 03:35:28;;;;;;;5.73;3.33;;;16.80;99.90;;;;;;5019914;28;20811;-42
2021/10/03 03:37:55;;;;;;;4.93;3.70;;;16.80;99.90;;;;;;5027887;28;20465;-38
2021/10/03 03:40:21;;;;;;;3.57;3.23;;;16.80;99.90;;;;;;5028337;28;20563;-38
2021/10/03 03:42:47;;;;;;;7.63;3.53;;;16.70;99.90;;;;;;5027814;28;20413;-40
2021/10/03 03:45:13;;;;;;;4.13;3.70;;;16.70;99.90;;;;;;5028201;28;20923;-39
2021/10/03 03:47:40;;;;;;;4.43;4.03;;;16.70;99.90;;;;;;5022837;28;20840;-39
2021/10/03 03:50:11;;;;;;;4.10;3.03;;;16.70;99.90;;;;;;5020322;28;20429;-38
2021/10/03 03:52:38;;;;;;;5.27;3.60;;;16.60;99.90;;;;;;5027891;28;20425;-40
2021/10/03 03:55:05;;;;;;;4.13;3.70;;;16.60;99.90;;;;;;5028079;28;20451;-39
2021/10/03 03:57:31;;;;;;;4.03;3.50;;;16.60;99.90;;;;;;5027977;28;20441;-40
2021/10/03 03:59:56;;;;;;;3.70;3.30;;;16.60;99.90;;;;;;5027728;28;20777;-40
2021/10/03 04:02:22;;;;;;;4.90;3.67;;;16.60;99.90;;;;;;5027934;28;20203;-40
2021/10/03 04:04:48;;;;;;;3.93;3.63;;;16.60;99.90;;;;;;5014211;28;20190;-41
2021/10/03 04:07:13;;;;;;;4.30;3.90;;;16.60;99.90;;;;;;5027604;28;20211;-38
2021/10/03 04:09:39;;;;;;;7.13;4.17;;;16.50;99.90;;;;;;5028144;28;20598;-38
2021/10/03 04:12:05;;;;;;;5.23;4.30;;;16.50;99.90;;;;;;5027486;28;20653;-38
2021/10/03 04:14:31;;;;;;;4.93;4.43;;;16.50;99.90;;;;;;5027281;28;20435;-38
2021/10/03 04:16:57;;;;;;;4.80;4.40;;;16.40;99.90;;;;;;5027775;28;20464;-43
2021/10/03 04:19:22;;;;;;;5.40;4.37;;;16.40;99.90;;;;;;5017730;28;20629;-41
2021/10/03 04:21:48;;;;;;;5.00;4.10;;;16.40;99.90;;;;;;5027096;28;20537;-39
2021/10/03 04:24:14;;;;;;;7.13;4.70;;;16.40;99.90;;;;;;5027182;28;20222;-39
2021/10/03 04:26:40;;;;;;;5.27;4.77;;;16.40;99.90;;;;;;5027316;28;20220;-40
2021/10/03 04:29:05;;;;;;;6.43;4.73;;;16.30;99.90;;;;;;5027627;28;20428;-38
2021/10/03 04:31:31;;;;;;;5.70;4.97;;;16.30;99.90;;;;;;5027505;28;20198;-38
2021/10/03 04:33:57;;;;;;;9.43;5.10;;;16.30;99.90;;;;;;5019764;28;20190;-38
2021/10/03 04:36:23;;;;;;;6.20;4.97;;;16.30;99.90;;;;;;5026269;28;20281;-39
2021/10/03 04:38:50;;;;;;;7.33;5.70;;;16.30;99.90;;;;;;5027392;28;20218;-39
2021/10/03 04:41:16;;;;;;;5.77;5.23;;;16.30;99.90;;;;;;5027333;28;20858;-38
2021/10/03 04:43:44;;;;;;;6.10;5.17;;;16.30;99.90;;;;;;5027075;28;20429;-43
2021/10/03 04:46:10;;;;;;;6.17;5.57;;;16.30;99.90;;;;;;5025800;28;20520;-41
2021/10/03 04:48:36;;;;;;;9.47;5.67;;;16.30;99.90;;;;;;5019484;28;20724;-38
2021/10/03 04:51:02;;;;;;;7.03;5.87;;;16.30;99.90;;;;;;5022741;28;20422;-41
2021/10/03 04:53:27;;;;;;;5.20;4.70;;;16.20;99.90;;;;;;5024928;28;20198;-38
2021/10/03 04:55:53;;;;;;;5.90;5.40;;;16.20;99.90;;;;;;5025728;28;20205;-39
2021/10/03 04:58:19;;;;;;;7.30;5.80;;;16.20;99.90;;;;;;5027028;28;20226;-41
2021/10/03 05:00:44;;;;;;;7.30;6.20;;;16.20;99.90;;;;;;5026972;28;20194;-38
2021/10/03 05:03:10;;;;;;;11.57;6.20;;;16.20;99.90;;;;;;5022869;28;20707;-38
2021/10/03 05:05:36;;;;;;;6.60;5.93;;;16.20;99.90;;;;;;5019266;28;20193;-38
2021/10/03 05:08:03;;;;;;;6.90;6.30;;;16.10;99.90;;;;;;5027056;28;20273;-39
2021/10/03 05:10:29;;;;;;;7.47;6.20;;;16.10;99.90;;;;;;5026558;28;20429;-39
2021/10/03 05:12:54;;;;;;;8.70;6.40;;;16.10;99.90;;;;;;5026477;28;20463;-38
2021/10/03 05:15:20;;;;;;;7.47;6.73;;;16.10;99.90;;;;;;5026585;28;20198;-41
2021/10/03 05:17:46;;;;;;;7.13;5.80;;;16.10;99.90;;;;;;5026641;28;20718;-38
2021/10/03 05:20:12;;;;;;;7.53;6.13;;;16.10;99.90;;;;;;5014207;28;20564;-39
2021/10/03 05:22:37;;;;;;;6.47;5.87;;;16.10;99.90;;;;;;5026372;28;20186;-39
2021/10/03 05:25:04;;;;;;;7.07;6.23;;;16.10;99.90;;;;;;5025875;28;20293;-42
2021/10/03 05:27:30;;;;;;;7.57;6.77;;;16.10;99.90;;;;;;5026919;28;20189;-38
2021/10/03 05:29:55;;;;;;;7.67;6.30;;;16.10;99.90;;;;;;5026266;28;20769;-39
2021/10/03 05:32:21;;;;;;;10.30;7.10;;;16.10;99.90;;;;;;5026388;28;20190;-38
2021/10/03 05:34:46;;;;;;;9.40;6.27;;;16.10;99.90;;;;;;5016180;28;20222;-38
2021/10/03 05:37:12;;;;;;;7.30;6.53;;;16.10;99.90;;;;;;5026377;28;20198;-38
2021/10/03 05:39:38;;;;;;;9.20;7.57;;;16.00;99.90;;;;;;5026574;28;20364;-39
2021/10/03 05:42:03;;;;;;;8.00;7.20;;;16.10;99.90;;;;;;5026118;28;20205;-41
2021/10/03 05:44:29;;;;;;;8.40;7.50;;;16.10;99.90;;;;;;5025788;28;20206;-40
2021/10/03 05:46:55;;;;;;;7.37;6.33;;;16.10;99.90;;;;;;5024092;28;20316;-39
2021/10/03 05:49:21;;;;;;;7.93;7.17;;;16.10;99.90;;;;;;5016735;28;20205;-39
2021/10/03 05:51:46;;;;;;;8.90;7.13;;;16.10;99.90;;;;;;5019172;28;20669;-42
2021/10/03 05:54:12;;;;;;;8.40;6.60;;;16.10;99.90;;;;;;5025360;28;20202;-41
2021/10/03 05:56:37;;;;;;;8.17;7.30;;;16.10;99.90;;;;;;5025749;28;20317;-39
2021/10/03 05:59:04;;;;;;;8.30;7.50;;;16.20;99.90;;;;;;5025942;28;20704;-38
2021/10/03 06:01:30;;;;;;;7.20;6.33;;;16.10;99.90;;;;;;5026135;28;20673;-38
2021/10/03 06:03:56;;;;;;;8.60;7.10;;;16.10;99.90;;;;;;5019792;28;20437;-38
2021/10/03 06:06:22;;;;;;;11.73;7.23;;;16.20;99.90;;;;;;5018722;28;20218;-39
2021/10/03 06:08:48;;;;;;;9.23;7.43;;;16.20;99.90;;;;;;5025794;28;20586;-39
2021/10/03 06:11:13;;;;;;;11.80;7.37;;;16.10;99.90;;;;;;5025834;28;20835;-46
2021/10/03 06:13:40;;;;;;;11.30;7.47;;;16.10;99.90;;;;;;5025170;28;20236;-38
2021/10/03 06:16:07;;;;;;;8.80;7.00;;;16.20;99.90;;;;;;5025632;28;20218;-38
2021/10/03 06:18:32;;;;;;;10.10;7.00;;;16.20;99.90;;;;;;5023812;28;21022;-39
2021/10/03 06:20:58;;;;;;;9.40;7.40;;;16.20;99.90;;;;;;5023778;28;20417;-39
2021/10/03 06:23:23;;;;;;;10.97;9.20;;;16.20;99.90;;;;;;5025051;28;20273;-38
2021/10/03 06:25:49;;;;;;;7.77;6.97;;;16.20;99.90;;;;;;5026073;28;20595;-41
2021/10/03 06:28:15;;;;;;;8.43;7.57;;;16.20;99.90;;;;;;5025835;28;20197;-39
2021/10/03 06:30:40;;;;;;;8.90;7.97;;;16.20;99.90;;;;;;5026633;28;20534;-41
2021/10/03 06:33:06;;;;;;;9.10;7.53;;;16.20;99.90;;;;;;5028883;28;20565;-39
2021/10/03 06:35:32;;;;;;;9.77;6.33;;;16.20;99.90;;;;;;5019620;28;20194;-38
2021/10/03 06:37:58;;;;;;;8.07;7.13;;;16.30;99.90;;;;;;5029403;28;20186;-39
2021/10/03 06:40:24;;;;;;;8.40;6.50;;;16.30;99.90;;;;;;5029831;28;20220;-40
2021/10/03 06:42:50;;;;;;;8.67;7.77;;;16.30;99.90;;;;;;5029068;28;20916;-40
2021/10/03 06:45:16;;;;;;;7.90;7.10;;;16.30;99.90;;;;;;5028885;28;20431;-39
2021/10/03 06:47:42;;;;;;;8.43;6.90;;;16.40;99.90;;;;;;5027770;28;20579;-39
2021/10/03 06:50:08;;;;;;;7.40;6.30;;;16.40;99.90;;;;;;5021890;28;20184;-39
2021/10/03 06:52:34;;;;;;;7.40;6.70;;;16.40;99.90;;;;;;5028619;28;20421;-40
2021/10/03 06:55:00;;;;;;;8.83;6.80;;;16.40;99.90;;;;;;5028757;28;20984;-40
2021/10/03 06:57:26;;;;;;;8.60;7.70;;;16.40;99.90;;;;;;5029469;28;20437;-39
2021/10/03 06:59:51;;;;;;;9.60;7.00;;;16.50;99.90;;;;;;5028882;28;20325;-39
2021/10/03 07:02:21;;;;;;;8.77;7.03;;;16.50;99.90;;;;;;5029337;28;20179;-39
2021/10/03 07:04:47;;;;;;;9.23;6.73;;;16.50;99.90;;;;;;5020629;28;20629;-38
2021/10/03 07:07:12;;;;;;;8.97;8.00;;;16.50;99.90;;;;;;5027655;28;20417;-39
2021/10/03 07:09:38;;;;;;;12.07;7.40;;;16.50;99.90;;;;;;5029074;28;20198;-39
2021/10/03 07:12:04;;;;;;;8.23;7.43;;;16.50;99.90;;;;;;5028816;28;20239;-40
2021/10/03 07:14:30;;;;;;;7.57;6.47;;;16.50;99.90;;;;;;5028134;28;20202;-40
2021/10/03 07:16:55;;;;;;;10.90;6.60;;;16.60;99.90;;;;;;5028680;28;20455;-39
2021/10/03 07:19:21;;;;;;;8.50;7.10;;;16.60;99.90;;;;;;5025718;28;20294;-39
2021/10/03 07:21:46;;;;;;;10.40;7.53;;;16.50;99.90;;;;;;5025091;28;20183;-38
2021/10/03 07:24:12;;;;;;;7.83;7.03;;;16.60;99.90;;;;;;5028344;28;20512;-38
2021/10/03 07:26:38;;;;;;;9.03;7.33;;;16.50;99.90;;;;;;5028936;28;20272;-38
2021/10/03 07:29:04;;;;;;;6.47;5.87;;;16.50;99.90;;;;;;5028574;28;20279;-39
2021/10/03 07:31:30;;;;;;;12.97;6.83;;;16.60;99.90;;;;;;5028477;28;20190;-39
2021/10/03 07:33:57;;;;;;;8.77;6.00;;;16.60;99.90;;;;;;5027165;28;20189;-39
2021/10/03 07:36:22;;;;;;;10.57;6.10;;;16.60;99.90;;;;;;5018593;28;20951;-38
2021/10/03 07:38:49;;;;;;;8.40;7.13;;;16.60;99.90;;;;;;5027048;28;20464;-40
2021/10/03 07:41:15;;;;;;;7.83;6.93;;;16.60;99.90;;;;;;5028327;28;20269;-39
2021/10/03 07:43:43;;;;;;;7.27;6.57;;;16.60;99.90;;;;;;5026465;28;20417;-38
2021/10/03 07:46:09;;;;;;;7.47;6.77;;;16.70;99.90;;;;;;5026835;28;20914;-39
2021/10/03 07:48:35;;;;;;;7.43;6.73;;;16.70;99.90;;;;;;5028697;28;20591;-38
2021/10/03 07:51:01;;;;;;;7.93;7.13;;;16.70;99.90;;;;;;5018929;28;20954;-40
2021/10/03 07:53:27;;;;;;;9.03;7.50;;;16.70;99.90;;;;;;5026243;28;20433;-38
2021/10/03 07:55:53;;;;;;;9.73;6.27;;;16.70;99.90;;;;;;5028248;28;20564;-39
2021/10/03 07:58:18;;;;;;;6.97;6.27;;;16.70;99.90;;;;;;5027697;28;20475;-40
2021/10/03 08:00:44;;;;;;;10.30;7.43;;;16.70;99.90;;;;;;5028209;28;20324;-39
2021/10/03 08:03:10;;;;;;;9.40;6.20;;;16.60;99.90;;;;;;5027656;28;20188;-40
2021/10/03 08:05:36;;;;;;;9.17;7.27;;;16.60;99.90;;;;;;5018647;28;20187;-39
2021/10/03 08:08:03;;;;;;;7.10;6.07;;;16.60;99.90;;;;;;5022878;28;20654;-38
2021/10/03 08:10:29;;;;;;;8.17;6.87;;;16.60;99.90;;;;;;5027653;28;20436;-38
2021/10/03 08:12:55;;;;;;;8.87;6.60;;;16.60;99.90;;;;;;5025950;28;20417;-41
2021/10/03 08:15:21;;;;;;;9.57;6.77;;;16.60;99.90;;;;;;5027822;28;20285;-39
2021/10/03 08:17:46;;;;;;;7.70;6.90;;;16.50;99.90;;;;;;5027916;28;20445;-40
2021/10/03 08:20:12;;;;;;;8.23;7.10;;;16.50;99.90;;;;;;5021061;28;20438;-39
2021/10/03 08:22:38;;;;;;;7.77;6.50;;;16.50;99.90;;;;;;5019368;28;20185;-42
2021/10/03 08:25:07;;;;;;;7.33;6.50;;;16.50;99.90;;;;;;5027299;28;20244;-38
2021/10/03 08:27:34;;;;;;;9.70;6.40;;;16.50;99.90;;;;;;5027735;28;20178;-39
2021/10/03 08:30:01;;;;;;;8.40;6.57;;;16.50;99.90;;;;;;5027604;28;20801;-39
2021/10/03 08:32:27;;;;;;;7.80;7.10;;;16.50;99.90;;;;;;5027610;28;20866;-39
2021/10/03 08:34:52;;;;;;;8.10;6.60;;;16.50;99.90;;;;;;5021894;28;20524;-39
2021/10/03 08:37:18;;;;;;;8.93;7.00;;;16.50;99.90;;;;;;5021322;28;20465;-38
2021/10/03 08:39:44;;;;;;;7.00;6.30;;;16.50;99.90;;;;;;5026923;28;20206;-38
2021/10/03 08:42:10;;;;;;;8.53;7.67;;;16.50;99.90;;;;;;5027390;28;20217;-38
2021/10/03 08:44:37;;;;;;;13.40;7.27;;;16.50;99.90;;;;;;5026506;28;20198;-40
2021/10/03 08:47:03;;;;;;;8.37;7.50;;;16.50;99.90;;;;;;5026544;28;20425;-38
2021/10/03 08:49:29;;;;;;;7.23;6.53;;;16.50;99.90;;;;;;5026672;28;20428;-40
2021/10/03 08:51:54;;;;;;;8.83;6.93;;;16.40;99.90;;;;;;5015151;28;20437;-38
2021/10/03 08:54:20;;;;;;;9.10;7.10;;;16.50;99.90;;;;;;5026101;28;20609;-39
2021/10/03 08:56:46;;;;;;;8.20;6.93;;;16.40;99.90;;;;;;5027067;28;20272;-39
2021/10/03 08:59:12;;;;;;;7.47;6.80;;;16.50;99.90;;;;;;5026876;28;20206;-41
2021/10/03 09:01:53;;;;;;;8.13;7.23;;;16.50;99.90;;;;;;5026828;28;20491;-39
2021/10/03 09:04:28;;;;;;;7.57;6.53;;;16.50;99.90;;;;;;5014588;28;20194;-38
2021/10/03 09:07:05;;;;;;;7.73;6.93;;;16.50;99.90;;;;;;5018560;28;20494;-41
2021/10/03 09:09:57;;;;;;;7.80;6.90;;;16.50;99.90;;;;;;5026749;28;20503;-40
2021/10/03 09:12:34;;;;;;;8.73;7.00;;;16.50;99.90;;;;;;5014354;28;20423;-39
2021/10/03 09:15:03;;;;;;;7.67;6.30;;;16.50;99.90;;;;;;5025234;28;20448;-40
2021/10/03 09:17:30;;;;;;;9.23;6.90;;;16.50;99.90;;;;;;5026247;28;20420;-38
2021/10/03 09:20:16;;;;;;;7.20;6.33;;;16.50;99.90;;;;;;5025720;28;20460;-39
2021/10/03 09:22:53;;;;;;;7.47;6.57;;;16.50;99.90;;;;;;5018538;28;20452;-40
2021/10/03 09:25:38;;;;;;;9.37;6.83;;;16.40;99.90;;;;;;5024051;28;20425;-39
2021/10/03 09:28:30;;;;;;;7.47;6.67;;;16.50;99.90;;;;;;5026395;28;20421;-38
2021/10/03 09:31:08;;;;;;;7.43;6.73;;;16.40;99.90;;;;;;5026072;28;20464;-42
2021/10/03 09:33:57;;;;;;;11.23;6.93;;;16.50;99.90;;;;;;5026106;28;20468;-42
2021/10/03 09:36:32;;;;;;;7.30;6.60;;;16.50;99.90;;;;;;5014082;28;20504;-39
2021/10/03 09:38:59;;;;;;;7.40;6.57;;;16.50;99.90;;;;;;5024940;28;20514;-39
2021/10/03 09:41:41;;;;;;;8.60;7.67;;;16.50;99.90;;;;;;5026405;28;20782;-38
2021/10/03 09:44:09;;;;;;;7.50;6.80;;;16.50;99.90;;;;;;5025560;28;20425;-39
2021/10/03 09:46:46;;;;;;;7.50;6.73;;;16.50;99.90;;;;;;5025017;28;20908;-40
2021/10/03 09:49:25;;;;;;;6.90;6.30;;;16.50;99.90;;;;;;5026563;28;20811;-39
2021/10/03 09:51:51;;;;;;;7.30;6.63;;;16.50;99.90;;;;;;5015456;28;20515;-40
2021/10/03 09:54:19;;;;;;;7.80;6.80;;;16.50;99.90;;;;;;5025474;28;20436;-39
2021/10/03 09:56:45;;;;;;;7.90;6.47;;;16.60;99.90;;;;;;5026283;28;20449;-39
2021/10/03 09:59:11;;;;;;;9.67;6.57;;;16.60;99.90;;;;;;5025693;28;20461;-38
2021/10/03 10:01:46;;;;;;;7.43;6.50;;;16.60;99.90;;;;;;5026453;28;20531;-40
2021/10/03 10:04:17;;;;;;;7.30;6.40;;;16.60;99.90;;;;;;5012827;28;20181;-41
2021/10/03 10:06:44;;;;;;;8.13;5.80;;;16.60;99.90;;;;;;5015641;28;21003;-40
2021/10/03 10:09:22;;;;;;;7.97;7.07;;;16.60;99.90;;;;;;5026026;28;20498;-39
2021/10/03 10:12:12;;;;;;;7.97;6.07;;;16.60;99.90;;;;;;5026110;28;20526;-39
2021/10/03 10:14:42;;;;;;;9.07;6.80;;;16.60;99.90;;;;;;5025316;28;20511;-38
2021/10/03 10:17:29;;;;;;;7.43;6.73;;;16.60;99.90;;;;;;5025870;28;20417;-38
2021/10/03 10:19:55;;;;;;;6.47;5.83;;;16.70;99.90;;;;;;5028446;28;20543;-38
2021/10/03 10:22:22;;;;;;;7.10;5.67;;;16.70;99.90;;;;;;5012233;28;20466;-39
2021/10/03 10:25:00;;;;;;;6.33;5.73;;;16.70;99.90;;;;;;5021357;28;20457;-39
2021/10/03 10:27:28;;;;;;;7.20;5.93;;;16.70;99.90;;;;;;5024878;28;20440;-38
2021/10/03 10:30:06;;;;;;;6.90;5.70;;;16.70;99.90;;;;;;5025733;28;20838;-44
2021/10/03 10:32:34;;;;;;;8.10;6.60;;;16.80;99.90;;;;;;5025972;28;20442;-39
2021/10/03 10:35:11;;;;;;;7.60;6.90;;;16.80;99.90;;;;;;5025478;28;20897;-38
2021/10/03 10:37:49;;;;;;;6.80;6.10;;;16.80;99.90;;;;;;5013872;28;20523;-38
2021/10/03 10:40:21;;;;;;;6.77;6.07;;;16.80;99.90;;;;;;5025473;28;20424;-38
2021/10/03 10:43:07;;;;;;;7.53;6.10;;;16.80;99.90;;;;;;5025356;28;20433;-38
2021/10/03 10:45:36;;;;;;;6.83;6.13;;;16.80;99.90;;;;;;5014450;28;20422;-39
2021/10/03 10:48:13;;;;;;;6.40;5.80;;;16.80;99.90;;;;;;5012488;28;20421;-39
2021/10/03 10:50:43;;;;;;;7.50;6.80;;;16.80;99.90;;;;;;5023369;28;20553;-38
2021/10/03 10:53:21;;;;;;;8.17;6.90;;;16.80;99.90;;;;;;5018644;28;20406;-39
2021/10/03 10:56:24;;;;;;;8.37;7.57;;;16.80;99.90;;;;;;5023001;28;20424;-40
2021/10/03 10:58:52;;;;;;;7.27;6.57;;;16.90;99.90;;;;;;5025846;28;20452;-38
2021/10/03 11:01:40;;;;;;;8.93;6.57;;;16.90;99.90;;;;;;5025398;28;20997;-39
2021/10/03 11:04:21;;;;;;;6.93;6.30;;;16.90;99.90;;;;;;5025222;28;20783;-41
2021/10/03 11:06:47;;;;;;;7.80;6.87;;;16.90;99.90;;;;;;5017387;28;21070;-39
2021/10/03 11:09:14;;;;;;;7.80;6.07;;;16.90;99.90;;;;;;5022176;28;20501;-39
2021/10/03 11:11:59;;;;;;;8.20;6.80;;;16.90;99.90;;;;;;5025418;28;20192;-39
2021/10/03 11:14:27;;;;;;;7.40;6.73;;;16.90;99.90;;;;;;5025089;28;20427;-39
2021/10/03 11:16:59;;;;;;;9.10;6.53;;;16.90;99.90;;;;;;5025602;28;20777;-39
2021/10/03 11:19:37;;;;;;;7.30;6.53;;;16.90;99.90;;;;;;5029168;28;20468;-41
2021/10/03 11:22:15;;;;;;;7.00;5.87;;;17.00;99.90;;;;;;5009258;28;20483;-40
2021/10/03 11:24:46;;;;;;;8.13;6.33;;;16.90;99.90;;;;;;5024353;28;20507;-38
2021/10/03 11:27:15;;;;;;;9.23;6.40;;;17.00;99.90;;;;;;5028741;28;20447;-40
2021/10/03 11:29:45;;;;;;;7.03;6.33;;;17.00;99.90;;;;;;5028935;28;20419;-39
2021/10/03 11:32:38;;;;;;;7.47;6.77;;;17.00;99.90;;;;;;5028795;28;20425;-39
2021/10/03 11:35:05;;;;;;;7.57;6.40;;;17.00;99.90;;;;;;5028171;28;20460;-38
2021/10/03 11:37:32;;;;;;;7.07;6.13;;;17.00;99.90;;;;;;5018285;28;20488;-39
2021/10/03 11:40:11;;;;;;;9.70;6.60;;;17.00;99.90;;;;;;5028845;28;20899;-41
2021/10/03 11:42:58;;;;;;;6.83;6.13;;;17.10;99.90;;;;;;5025256;28;20483;-39
2021/10/03 11:45:29;;;;;;;8.43;6.10;;;17.10;99.90;;;;;;5028204;28;20463;-42
2021/10/03 11:48:06;;;;;;;7.97;6.97;;;17.10;99.90;;;;;;5013294;28;20423;-42
2021/10/03 11:50:44;;;;;;;7.20;6.20;;;17.10;99.90;;;;;;5028833;28;20503;-39
2021/10/03 11:53:23;;;;;;;7.90;6.97;;;17.10;99.90;;;;;;5017249;28;20416;-44
2021/10/03 11:56:07;;;;;;;7.93;7.13;;;17.10;99.90;;;;;;5026882;28;20451;-39
2021/10/03 11:58:38;;;;;;;9.13;6.40;;;17.10;99.90;;;;;;5028443;28;20618;-38
2021/10/03 12:01:05;;;;;;;9.57;6.90;;;17.10;99.90;;;;;;5028493;28;20425;-39
2021/10/03 12:03:33;;;;;;;6.97;6.20;;;17.10;99.90;;;;;;5027650;28;21337;-39
2021/10/03 12:06:16;;;;;;;7.40;6.70;;;17.10;99.90;;;;;;5028520;28;20425;-39
2021/10/03 12:08:42;;;;;;;6.30;5.70;;;17.10;99.90;;;;;;5020477;28;20456;-40
2021/10/03 12:11:07;;;;;;;7.53;6.20;;;17.10;99.90;;;;;;5028460;28;20846;-39
2021/10/03 12:13:34;;;;;;;6.93;5.93;;;17.10;99.90;;;;;;5027691;28;20222;-40
2021/10/03 12:16:01;;;;;;;7.30;6.60;;;17.10;99.90;;;;;;5027794;28;20199;-38
2021/10/03 12:18:29;;;;;;;7.17;6.50;;;17.10;99.90;;;;;;5028504;28;20464;-38
2021/10/03 12:20:59;;;;;;;6.67;6.07;;;17.10;99.90;;;;;;5027795;28;20422;-39
2021/10/03 12:23:39;;;;;;;7.43;5.50;;;17.10;99.90;;;;;;5018394;28;20470;-40
2021/10/03 12:26:34;;;;;;;7.20;5.70;;;17.10;99.90;;;;;;5027591;28;20431;-40
2021/10/03 12:29:06;;;;;;;7.00;6.10;;;17.20;99.90;;;;;;5027411;28;20472;-39
2021/10/03 12:31:34;;;;;;;7.33;6.00;;;17.20;99.90;;;;;;5027720;28;20421;-39
2021/10/03 12:34:25;;;;;;;7.90;6.30;;;17.20;99.90;;;;;;5027422;28;20429;-39
2021/10/03 12:36:53;;;;;;;8.57;6.53;;;17.20;99.90;;;;;;5021175;28;20529;-40
2021/10/03 12:39:35;;;;;;;6.60;5.80;;;17.20;99.90;;;;;;5024299;28;20479;-42
2021/10/03 12:42:19;;;;;;;7.43;6.67;;;17.30;99.90;;;;;;5027643;28;20425;-39
2021/10/03 12:44:47;;;;;;;8.57;6.70;;;17.30;99.90;;;;;;5027153;28;20440;-39
2021/10/03 12:47:14;;;;;;;6.50;5.90;;;17.30;99.90;;;;;;5026452;28;20607;-38
2021/10/03 12:49:40;;;;;;;7.57;6.47;;;17.30;99.90;;;;;;5027645;28;20693;-41
2021/10/03 12:52:07;;;;;;;8.20;5.60;;;17.30;99.90;;;;;;5021079;28;20469;-39